sensor_id;sensor_type;location;lat;lon;timestamp;temperature;humidity
24087;DHT22;22893;50.572;7.234;2023-01-06T06:47:27;20.70;65.20
24087;DHT22;22893;50.572;7.234;2023-01-06T06:49:55;20.70;65.90
24087;DHT22;22893;50.572;7.234;2023-01-06T06:52:22;20.80;65.60
24087;DHT22;22893;50.572;7.234;2023-01-06T06:54:50;21.00;65.40
24087;DHT22;22893;50.572;7.234;2023-01-06T06:57:17;21.10;65.10
24087;DHT22;22893;50.572;7.234;2023-01-06T06:59:45;21.20;65.80
24087;DHT22;22893;50.572;7.234;2023-01-06T07:02:12;21.30;64.60
24087;DHT22;22893;50.572;7.234;2023-01-06T07:04:39;21.40;64.40
24087;DHT22;22893;50.572;7.234;2023-01-06T07:07:07;21.50;64.30
24087;DHT22;22893;50.572;7.234;2023-01-06T07:09:34;21.50;64.10
24087;DHT22;22893;50.572;7.234;2023-01-06T07:12:02;21.70;64.00
24087;DHT22;22893;50.572;7.234;2023-01-06T07:14:30;21.60;63.70
24087;DHT22;22893;50.572;7.234;2023-01-06T07:17:01;21.70;63.70
24087;DHT22;22893;50.572;7.234;2023-01-06T07:19:28;21.70;63.70
24087;DHT22;22893;50.572;7.234;2023-01-06T07:21:56;21.70;63.70
24087;DHT22;22893;50.572;7.234;2023-01-06T07:24:23;21.80;63.70
24087;DHT22;22893;50.572;7.234;2023-01-06T07:26:51;21.80;63.50
24087;DHT22;22893;50.572;7.234;2023-01-06T07:29:18;21.90;63.30
24087;DHT22;22893;50.572;7.234;2023-01-06T07:31:46;21.90;63.30
24087;DHT22;22893;50.572;7.234;2023-01-06T07:34:13;21.90;63.10
24087;DHT22;22893;50.572;7.234;2023-01-06T07:36:41;21.90;63.20
24087;DHT22;22893;50.572;7.234;2023-01-06T07:39:08;21.90;63.10
24087;DHT22;22893;50.572;7.234;2023-01-06T07:41:36;22.00;63.10
24087;DHT22;22893;50.572;7.234;2023-01-06T07:44:03;22.00;62.90
24087;DHT22;22893;50.572;7.234;2023-01-06T07:46:31;22.00;63.10
24087;DHT22;22893;50.572;7.234;2023-01-06T07:48:58;22.00;62.90
24087;DHT22;22893;50.572;7.234;2023-01-06T07:51:26;22.00;62.90
24087;DHT22;22893;50.572;7.234;2023-01-06T07:53:53;22.00;62.80
24087;DHT22;22893;50.572;7.234;2023-01-06T07:56:21;22.00;62.80
24087;DHT22;22893;50.572;7.234;2023-01-06T07:58:49;22.00;62.70
24087;DHT22;22893;50.572;7.234;2023-01-06T17:42:41;21.40;67.70
24087;DHT22;22893;50.572;7.234;2023-01-06T17:45:13;21.50;68.90
24087;DHT22;22893;50.572;7.234;2023-01-06T17:47:43;21.60;68.60
24087;DHT22;22893;50.572;7.234;2023-01-06T17:53:14;22.00;68.10
24087;DHT22;22893;50.572;7.234;2023-01-06T17:56:03;22.00;67.70
24087;DHT22;22893;50.572;7.234;2023-01-06T17:58:33;22.20;67.50
24087;DHT22;22893;50.572;7.234;2023-01-06T18:01:01;22.20;67.30
24087;DHT22;22893;50.572;7.234;2023-01-06T18:03:32;22.30;67.10
24087;DHT22;22893;50.572;7.234;2023-01-06T18:06:11;22.40;67.10
24087;DHT22;22893;50.572;7.234;2023-01-06T18:08:37;22.50;67.00
24087;DHT22;22893;50.572;7.234;2023-01-06T18:13:48;22.50;66.50
24087;DHT22;22893;50.572;7.234;2023-01-06T18:16:30;22.50;66.40
24087;DHT22;22893;50.572;7.234;2023-01-06T18:19:04;22.60;66.40
24087;DHT22;22893;50.572;7.234;2023-01-06T18:21:36;22.60;66.30
24087;DHT22;22893;50.572;7.234;2023-01-06T18:24:21;22.70;66.00
24087;DHT22;22893;50.572;7.234;2023-01-06T18:26:51;22.70;65.80
24087;DHT22;22893;50.572;7.234;2023-01-06T18:29:28;22.70;65.60
24087;DHT22;22893;50.572;7.234;2023-01-06T18:31:54;22.70;65.20
24087;DHT22;22893;50.572;7.234;2023-01-06T18:34:29;22.80;65.00
24087;DHT22;22893;50.572;7.234;2023-01-06T18:36:59;22.80;64.80
24087;DHT22;22893;50.572;7.234;2023-01-06T18:39:37;22.80;64.70
24087;DHT22;22893;50.572;7.234;2023-01-06T18:42:25;22.80;64.60
24087;DHT22;22893;50.572;7.234;2023-01-06T18:47:30;22.80;64.40
24087;DHT22;22893;50.572;7.234;2023-01-06T18:50:12;22.80;64.40
24087;DHT22;22893;50.572;7.234;2023-01-06T18:52:47;22.80;64.30
24087;DHT22;22893;50.572;7.234;2023-01-06T18:55:26;22.80;64.20
24087;DHT22;22893;50.572;7.234;2023-01-06T18:57:57;22.80;64.10
24087;DHT22;22893;50.572;7.234;2023-01-06T19:08:46;22.80;64.00
24087;DHT22;22893;50.572;7.234;2023-01-06T19:11:20;22.80;64.00
24087;DHT22;22893;50.572;7.234;2023-01-06T19:13:48;22.80;64.00
24087;DHT22;22893;50.572;7.234;2023-01-06T19:19:27;22.80;63.90
24087;DHT22;22893;50.572;7.234;2023-01-06T19:22:15;22.80;63.90
24087;DHT22;22893;50.572;7.234;2023-01-06T19:33:28;22.80;63.90
24087;DHT22;22893;50.572;7.234;2023-01-06T19:36:15;22.90;63.70
24087;DHT22;22893;50.572;7.234;2023-01-06T19:38:47;22.80;63.80
24087;DHT22;22893;50.572;7.234;2023-01-06T19:41:28;22.90;63.70
24087;DHT22;22893;50.572;7.234;2023-01-06T19:44:09;22.90;63.80
24087;DHT22;22893;50.572;7.234;2023-01-06T19:46:42;22.80;63.80
24087;DHT22;22893;50.572;7.234;2023-01-06T19:49:34;22.90;63.70
24087;DHT22;22893;50.572;7.234;2023-01-06T19:52:00;22.90;63.70
24087;DHT22;22893;50.572;7.234;2023-01-06T19:54:33;22.90;63.70
24087;DHT22;22893;50.572;7.234;2023-01-06T19:57:05;22.90;63.60
